createdAt,value
2017-09-21T00:01:18.386Z,102015.98
2017-09-21T00:03:45.030Z,102017.30
2017-09-21T00:06:12.148Z,102012.48
2017-09-21T00:08:39.038Z,102015.54
2017-09-21T00:11:05.643Z,102017.73
2017-09-21T00:13:33.031Z,102024.30
2017-09-21T00:15:59.978Z,102020.39
2017-09-21T00:18:26.974Z,102014.69
2017-09-21T00:20:54.347Z,102018.19
2017-09-21T00:23:21.702Z,102017.75
2017-09-21T00:25:49.069Z,102020.81
2017-09-21T00:28:16.340Z,102018.20
2017-09-21T00:30:42.938Z,102024.34
2017-09-21T00:33:10.303Z,102030.03
2017-09-21T00:35:38.143Z,102033.11
2017-09-21T00:38:04.754Z,102028.72
2017-09-21T00:40:31.374Z,102028.28
2017-09-21T00:42:58.463Z,102024.34
2017-09-21T00:45:25.178Z,102023.89
2017-09-21T00:47:52.122Z,102019.55
2017-09-21T00:50:18.764Z,102021.27
2017-09-21T00:52:45.389Z,102022.60
2017-09-21T00:55:12.515Z,102024.34
2017-09-21T00:57:39.478Z,102027.86
2017-09-21T01:00:06.125Z,102025.25
2017-09-21T01:02:33.158Z,102023.05
2017-09-21T01:04:59.781Z,102021.31
2017-09-21T01:07:26.791Z,102017.80
2017-09-21T01:09:54.166Z,102016.06
2017-09-21T01:12:21.859Z,102015.19
2017-09-21T01:14:48.511Z,102016.49
2017-09-21T01:17:15.747Z,102024.80
2017-09-21T01:19:42.370Z,102019.13
2017-09-21T01:22:09.008Z,102026.14
2017-09-21T01:24:35.956Z,102020.88
2017-09-21T01:27:02.587Z,102021.75
2017-09-21T01:29:29.214Z,102022.63
2017-09-21T01:31:57.160Z,102021.77
2017-09-21T01:34:24.596Z,102020.89
2017-09-21T01:36:51.251Z,102018.70
2017-09-21T01:39:18.647Z,102027.03
2017-09-21T01:41:45.505Z,102030.97
2017-09-21T01:44:12.641Z,102027.91
2017-09-21T01:46:39.302Z,102025.27
2017-09-21T01:49:06.238Z,102026.60
2017-09-21T01:51:33.327Z,102021.78
2017-09-21T01:54:00.030Z,102017.84
2017-09-21T01:56:26.676Z,102016.52
2017-09-21T01:58:53.749Z,102010.84
2017-09-21T02:01:20.373Z,102014.33
2017-09-21T02:03:47.019Z,102013.45
2017-09-21T02:06:13.979Z,102019.19
2017-09-21T02:08:41.352Z,102026.16
2017-09-21T02:11:08.734Z,102027.03
2017-09-21T02:13:35.736Z,102025.73
2017-09-21T02:16:02.736Z,102032.31
2017-09-21T02:18:29.361Z,102023.98
2017-09-21T02:20:56.260Z,102024.88
2017-09-21T02:23:23.158Z,102028.39
2017-09-21T02:25:49.920Z,102020.06
2017-09-21T02:28:16.992Z,102023.55
2017-09-21T02:30:45.106Z,102024.44
2017-09-21T02:33:11.722Z,102021.81
2017-09-21T02:35:39.565Z,102029.70
2017-09-21T02:38:06.167Z,102031.01
2017-09-21T02:40:32.782Z,102021.38
2017-09-21T02:43:00.055Z,102029.25
2017-09-21T02:45:26.647Z,102027.08
2017-09-21T02:47:54.023Z,102029.72
2017-09-21T02:50:21.136Z,102026.20
2017-09-21T02:52:49.255Z,102020.06
2017-09-21T02:55:16.213Z,102020.06
2017-09-21T02:57:43.199Z,102020.50
2017-09-21T03:00:10.702Z,102017.45
2017-09-21T03:02:37.321Z,102015.25
2017-09-21T03:05:04.730Z,102017.45
2017-09-21T03:07:31.366Z,102022.27
2017-09-21T03:09:58.698Z,102018.77
2017-09-21T03:12:25.310Z,102027.97
2017-09-21T03:14:52.684Z,102024.45
2017-09-21T03:17:19.787Z,102029.28
2017-09-21T03:19:47.894Z,102023.59
2017-09-21T03:22:14.513Z,102021.42
2017-09-21T03:24:42.259Z,102027.11
2017-09-21T03:27:09.631Z,102015.72
2017-09-21T03:29:36.991Z,102024.48
2017-09-21T03:32:04.731Z,102020.09
2017-09-21T03:34:32.091Z,102021.88
2017-09-21T03:36:59.461Z,102014.84
2017-09-21T03:39:26.870Z,102009.55
2017-09-21T03:41:53.479Z,102012.67
2017-09-21T03:44:20.477Z,102012.23
2017-09-21T03:46:47.583Z,102014.41
2017-09-21T03:49:14.242Z,102010.00
2017-09-21T03:51:41.103Z,102013.98
2017-09-21T03:54:07.738Z,102017.44
2017-09-21T03:56:36.080Z,102016.13
2017-09-21T03:59:03.072Z,102018.34
2017-09-21T04:01:31.164Z,102017.89
2017-09-21T04:03:58.511Z,102013.55
2017-09-21T04:06:26.369Z,102018.78
2017-09-21T04:08:53.260Z,102012.64
2017-09-21T04:11:19.893Z,102018.80
2017-09-21T04:13:46.600Z,102012.23
2017-09-21T04:16:14.975Z,102020.10
2017-09-21T04:18:42.371Z,102013.97
2017-09-21T04:21:09.031Z,102016.17
2017-09-21T04:23:36.061Z,102017.03
2017-09-21T04:26:03.002Z,102023.16
2017-09-21T04:28:29.904Z,102028.86
2017-09-21T04:30:57.589Z,102029.73
2017-09-21T04:33:24.275Z,102030.20
2017-09-21T04:35:50.902Z,102039.41
2017-09-21T04:38:18.016Z,102029.33
2017-09-21T04:40:44.690Z,102030.20
2017-09-21T04:43:11.322Z,102031.52
2017-09-21T04:45:38.411Z,102038.52
2017-09-21T04:48:12.722Z,102041.59
2017-09-21T04:50:40.590Z,102035.91
2017-09-21T04:53:08.703Z,102042.48
2017-09-21T04:55:35.327Z,102050.80
2017-09-21T04:58:03.155Z,102046.86
2017-09-21T05:00:29.788Z,102053.42
2017-09-21T05:02:56.718Z,102055.61
2017-09-21T05:05:24.050Z,102053.42
2017-09-21T05:07:50.999Z,102053.45
2017-09-21T05:10:17.943Z,102050.36
2017-09-21T05:12:45.048Z,102049.95
2017-09-21T05:15:12.412Z,102050.80
2017-09-21T05:17:39.767Z,102048.19
2017-09-21T05:20:07.503Z,102047.31
2017-09-21T05:22:34.124Z,102052.58
2017-09-21T05:25:00.739Z,102042.52
2017-09-21T05:27:27.394Z,102053.87
2017-09-21T05:29:54.004Z,102053.45
2017-09-21T05:32:21.369Z,102059.58
2017-09-21T05:34:48.034Z,102058.69
2017-09-21T05:37:14.766Z,102056.53
2017-09-21T05:39:41.898Z,102056.52
2017-09-21T05:42:08.507Z,102053.02
2017-09-21T05:44:35.865Z,102053.02
2017-09-21T05:47:03.124Z,102051.26
2017-09-21T05:49:29.736Z,102054.34
2017-09-21T05:51:57.115Z,102058.28
2017-09-21T05:54:24.132Z,102060.04
2017-09-21T05:56:51.492Z,102060.86
2017-09-21T05:59:18.851Z,102055.77
2017-09-21T06:01:46.600Z,102053.38
2017-09-21T06:04:14.476Z,102047.83
2017-09-21T06:06:42.317Z,102056.72
2017-09-21T06:09:09.453Z,102059.87
2017-09-21T06:11:36.070Z,102062.53
2017-09-21T06:14:02.728Z,102057.33
2017-09-21T06:16:29.401Z,102060.81
2017-09-21T06:18:56.751Z,102062.15
2017-09-21T06:21:23.731Z,102054.72
2017-09-21T06:23:50.697Z,102064.81
2017-09-21T06:26:17.354Z,102054.36
2017-09-21T06:28:44.585Z,102069.13
2017-09-21T06:31:11.182Z,102061.22
2017-09-21T06:33:38.556Z,102070.87
2017-09-21T06:36:05.840Z,102066.98
2017-09-21T06:38:32.470Z,102066.12
2017-09-21T06:40:59.122Z,102065.69
2017-09-21T06:43:26.377Z,102073.13
2017-09-21T06:45:52.992Z,102073.97
2017-09-21T06:48:20.526Z,102066.91
2017-09-21T06:50:48.667Z,102063.39
2017-09-21T06:53:15.305Z,102064.64
2017-09-21T06:55:42.023Z,102068.59
2017-09-21T06:58:09.076Z,102069.05
2017-09-21T07:00:35.738Z,102068.19
2017-09-21T07:03:02.376Z,102069.95
2017-09-21T07:05:30.520Z,102066.84
2017-09-21T07:07:57.151Z,102070.30
2017-09-21T07:10:23.771Z,102075.09
2017-09-21T07:12:50.764Z,102065.47
2017-09-21T07:15:17.383Z,102069.01
2017-09-21T07:17:44.017Z,102066.45
2017-09-21T07:20:11.120Z,102070.41
2017-09-21T07:22:38.459Z,102076.17
2017-09-21T07:25:06.160Z,102076.59
2017-09-21T07:27:35.932Z,102076.17
2017-09-21T07:30:03.310Z,102084.08
2017-09-21T07:32:29.970Z,102078.79
2017-09-21T07:34:56.646Z,102083.16
2017-09-21T07:37:23.692Z,102074.41
2017-09-21T07:39:50.363Z,102080.54
2017-09-21T07:42:17.747Z,102078.30
2017-09-21T07:44:44.741Z,102079.20
2017-09-21T07:47:12.461Z,102083.63
2017-09-21T07:49:39.212Z,102089.73
2017-09-21T07:52:06.209Z,102085.38
2017-09-21T07:54:33.637Z,102083.63
2017-09-21T07:57:01.047Z,102084.53
2017-09-21T07:59:27.687Z,102092.42
2017-09-21T08:01:54.314Z,102074.48
2017-09-21T08:04:21.580Z,102088.45
2017-09-21T08:06:48.190Z,102090.63
2017-09-21T08:09:15.529Z,102094.98
2017-09-21T08:11:43.174Z,102096.32
2017-09-21T08:14:11.261Z,102097.63
2017-09-21T08:16:38.636Z,102102.45
2017-09-21T08:19:05.261Z,102108.14
2017-09-21T08:21:33.368Z,102107.31
2017-09-21T08:24:00.003Z,102129.63
2017-09-21T08:26:26.732Z,102110.72
2017-09-21T08:28:53.835Z,102108.55
2017-09-21T08:31:21.268Z,102106.80
2017-09-21T08:33:48.704Z,102104.65
2017-09-21T08:36:21.947Z,102099.38
2017-09-21T08:38:50.056Z,102097.63
2017-09-21T08:41:16.684Z,102094.98
2017-09-21T08:43:43.840Z,102091.91
2017-09-21T08:46:10.460Z,102096.70
2017-09-21T08:48:37.807Z,102092.27
2017-09-21T08:51:05.659Z,102097.09
2017-09-21T08:53:32.374Z,102098.28
2017-09-21T08:55:59.010Z,102103.09
2017-09-21T08:58:26.074Z,102104.50
2017-09-21T09:00:52.828Z,102101.88
2017-09-21T09:03:19.460Z,102103.98
2017-09-21T09:05:47.610Z,102107.48
2017-09-21T09:08:15.654Z,102107.96
2017-09-21T09:10:42.606Z,102108.44
2017-09-21T09:13:09.622Z,102113.70
2017-09-21T09:15:37.232Z,102107.94
2017-09-21T09:18:03.872Z,102114.06
2017-09-21T09:20:30.850Z,102105.72
2017-09-21T09:22:57.556Z,102100.89
2017-09-21T09:25:24.557Z,102090.41
2017-09-21T09:27:51.571Z,102101.72
2017-09-21T09:30:18.945Z,102101.69
2017-09-21T09:32:46.646Z,102104.77
2017-09-21T09:35:13.751Z,102099.55
2017-09-21T09:37:41.141Z,102095.63
2017-09-21T09:40:08.099Z,102099.55
2017-09-21T09:42:35.001Z,102089.89
2017-09-21T09:45:02.480Z,102096.38
2017-09-21T09:47:29.175Z,102094.13
2017-09-21T09:49:56.844Z,102098.06
2017-09-21T09:52:24.251Z,102097.61
2017-09-21T09:54:51.014Z,102086.63
2017-09-21T09:57:18.088Z,102088.78
2017-09-21T09:59:45.439Z,102092.25
2017-09-21T10:02:13.541Z,102098.82
2017-09-21T10:04:41.266Z,102100.20
2017-09-21T10:07:07.899Z,102100.20
2017-09-21T10:09:34.629Z,102098.92
2017-09-21T10:12:01.733Z,102097.09
2017-09-21T10:14:28.498Z,102103.34
2017-09-21T10:16:55.376Z,102100.33
2017-09-21T10:19:22.594Z,102092.61
2017-09-21T10:21:49.454Z,102109.20
2017-09-21T10:24:16.063Z,102114.48
2017-09-21T10:26:43.221Z,102107.05
2017-09-21T10:29:09.859Z,102092.65
2017-09-21T10:31:36.509Z,102103.09
2017-09-21T10:34:03.500Z,102106.59
2017-09-21T10:36:31.057Z,102095.20
2017-09-21T10:38:57.867Z,102096.50
2017-09-21T10:41:25.031Z,102100.90
2017-09-21T10:43:51.658Z,102103.55
2017-09-21T10:46:18.394Z,102107.90
2017-09-21T10:48:45.468Z,102132.91
2017-09-21T10:51:12.299Z,102112.31
2017-09-21T10:53:39.209Z,102117.11
2017-09-21T10:56:06.199Z,102110.09
2017-09-21T10:58:32.843Z,102106.16
2017-09-21T11:00:59.839Z,102111.86
2017-09-21T11:03:26.927Z,102105.27
2017-09-21T11:05:54.550Z,102104.87
2017-09-21T11:08:22.229Z,102100.50
2017-09-21T11:10:49.340Z,102100.50
2017-09-21T11:13:15.968Z,102103.17
2017-09-21T11:15:44.240Z,102098.35
2017-09-21T11:18:11.980Z,102104.02
2017-09-21T11:20:39.336Z,102104.87
2017-09-21T11:23:05.946Z,102108.83
2017-09-21T11:25:33.228Z,102104.02
2017-09-21T11:27:59.848Z,102114.07
2017-09-21T11:30:26.766Z,102108.83
2017-09-21T11:32:53.867Z,102108.81
2017-09-21T11:35:21.282Z,102107.06
2017-09-21T11:37:47.889Z,102109.23
2017-09-21T11:40:14.791Z,102112.30
2017-09-21T11:42:42.878Z,102111.35
2017-09-21T11:45:10.243Z,102106.86
2017-09-21T11:47:37.978Z,102102.47
2017-09-21T11:50:05.600Z,102106.84
2017-09-21T11:52:32.362Z,102107.69
2017-09-21T11:54:59.383Z,102106.33
2017-09-21T11:57:27.126Z,102098.88
2017-09-21T11:59:54.536Z,102100.98
2017-09-21T12:02:21.169Z,102097.44
2017-09-21T12:04:48.226Z,102092.16
2017-09-21T12:07:14.852Z,102083.47
2017-09-21T12:09:41.503Z,102092.10
2017-09-21T12:12:08.617Z,102081.62
2017-09-21T12:14:35.254Z,102083.81
2017-09-21T12:17:01.871Z,102074.55
2017-09-21T12:19:28.956Z,102080.20
2017-09-21T12:21:55.567Z,102074.05
2017-09-21T12:24:22.524Z,102077.09
2017-09-21T12:26:49.507Z,102064.09
2017-09-21T12:29:16.864Z,102082.49
2017-09-21T12:31:43.480Z,102079.00
2017-09-21T12:34:10.446Z,102072.30
2017-09-21T12:36:38.558Z,102070.67
2017-09-21T12:39:05.232Z,102072.53
2017-09-21T12:41:32.238Z,102069.19
2017-09-21T12:43:58.851Z,102063.59
2017-09-21T12:46:25.740Z,102059.66
2017-09-21T12:48:52.809Z,102064.13
2017-09-21T12:51:19.448Z,102064.11
2017-09-21T12:53:46.134Z,102071.59
2017-09-21T12:56:14.138Z,102072.91
2017-09-21T12:58:40.759Z,102075.11
2017-09-21T13:01:07.355Z,102077.74
2017-09-21T13:03:34.000Z,102081.70
2017-09-21T13:06:01.095Z,102081.25
2017-09-21T13:08:27.982Z,102082.57
2017-09-21T13:10:54.609Z,102067.75
2017-09-21T13:13:21.237Z,102077.74
2017-09-21T13:15:48.198Z,102082.58
2017-09-21T13:18:14.816Z,102078.21
2017-09-21T13:20:41.740Z,102082.14
2017-09-21T13:23:08.827Z,102078.21
2017-09-21T13:25:35.443Z,102078.21
2017-09-21T13:28:02.064Z,102081.23
2017-09-21T13:30:29.607Z,102080.77
2017-09-21T13:32:56.453Z,102083.42
2017-09-21T13:35:23.067Z,102083.42
2017-09-21T13:37:50.709Z,102084.75
2017-09-21T13:40:18.825Z,102084.31
2017-09-21T13:42:45.692Z,102090.50
2017-09-21T13:45:12.867Z,102086.53
2017-09-21T13:47:39.873Z,102089.61
2017-09-21T13:50:12.700Z,102089.58
2017-09-21T13:52:39.623Z,102086.09
2017-09-21T13:55:06.753Z,102087.41
2017-09-21T13:57:33.384Z,102086.11
2017-09-21T14:00:00.012Z,102083.06
2017-09-21T14:02:27.120Z,102084.80
2017-09-21T14:04:53.735Z,102078.28
2017-09-21T14:07:20.398Z,102079.14
2017-09-21T14:09:48.178Z,102080.85
2017-09-21T14:12:15.809Z,102073.00
2017-09-21T14:14:42.719Z,102076.05
2017-09-21T14:17:10.579Z,102078.22
2017-09-21T14:19:37.194Z,102081.73
2017-09-21T14:22:04.550Z,102082.57
2017-09-21T14:24:33.494Z,102078.19
2017-09-21T14:27:00.104Z,102083.03
2017-09-21T14:29:26.763Z,102086.52
2017-09-21T14:31:53.631Z,102086.55
2017-09-21T14:34:21.214Z,102081.30
2017-09-21T14:36:48.571Z,102082.17
2017-09-21T14:39:16.775Z,102076.45
2017-09-21T14:41:43.375Z,102081.30
2017-09-21T14:44:10.747Z,102079.55
2017-09-21T14:46:37.874Z,102079.98
2017-09-21T14:49:05.262Z,102076.91
2017-09-21T14:51:31.875Z,102077.80
2017-09-21T14:53:59.693Z,102081.76
2017-09-21T14:56:26.551Z,102078.69
2017-09-21T14:58:53.175Z,102081.73
2017-09-21T15:01:20.034Z,102078.22
2017-09-21T15:03:46.627Z,102072.08
2017-09-21T15:06:13.248Z,102073.84
2017-09-21T15:08:41.345Z,102072.96
2017-09-21T15:11:07.971Z,102073.41
2017-09-21T15:13:34.603Z,102073.86
2017-09-21T15:16:01.871Z,102073.87
2017-09-21T15:18:28.507Z,102071.70
2017-09-21T15:20:55.129Z,102074.75
2017-09-21T15:23:22.211Z,102066.88
2017-09-21T15:25:48.836Z,102071.70
2017-09-21T15:28:15.978Z,102064.24
2017-09-21T15:30:42.926Z,102061.59
2017-09-21T15:33:09.560Z,102064.22
2017-09-21T15:35:36.651Z,102071.24
2017-09-21T15:38:03.514Z,102062.92
2017-09-21T15:40:30.930Z,102062.05
2017-09-21T15:42:57.755Z,102061.56
2017-09-21T15:45:24.395Z,102062.86
2017-09-21T15:47:51.012Z,102062.00
2017-09-21T15:50:17.975Z,102061.57
2017-09-21T15:52:44.601Z,102063.30
2017-09-21T15:55:11.251Z,102059.80
2017-09-21T15:57:38.338Z,102064.63
2017-09-21T16:00:04.952Z,102070.75
2017-09-21T16:02:31.615Z,102063.73
2017-09-21T16:04:58.976Z,102074.71
2017-09-21T16:07:25.591Z,102070.77
2017-09-21T16:09:52.296Z,102063.73
2017-09-21T16:12:19.305Z,102069.41
2017-09-21T16:14:46.911Z,102069.84
2017-09-21T16:17:13.531Z,102065.92
2017-09-21T16:19:40.680Z,102065.50
2017-09-21T16:22:07.642Z,102065.50
2017-09-21T16:24:34.560Z,102064.18
2017-09-21T16:27:02.702Z,102067.67
2017-09-21T16:29:29.319Z,102067.23
2017-09-21T16:31:55.946Z,102065.09
2017-09-21T16:34:22.601Z,102068.14
2017-09-21T16:36:49.276Z,102069.41
2017-09-21T16:39:17.196Z,102071.64
2017-09-21T16:41:43.865Z,102077.78
2017-09-21T16:44:10.514Z,102079.12
2017-09-21T16:46:38.364Z,102074.31
2017-09-21T16:49:05.032Z,102071.66
2017-09-21T16:51:32.408Z,102072.50
2017-09-21T16:53:59.304Z,102075.11
2017-09-21T16:56:26.701Z,102077.33
2017-09-21T16:58:53.391Z,102080.39
2017-09-21T17:01:20.489Z,102075.97
2017-09-21T17:03:47.211Z,102080.83
2017-09-21T17:06:14.903Z,102072.95
2017-09-21T17:08:41.891Z,102073.41
2017-09-21T17:11:09.247Z,102078.21
2017-09-21T17:13:37.348Z,102074.27
2017-09-21T17:16:05.076Z,102074.64
2017-09-21T17:18:31.897Z,102070.96
2017-09-21T17:20:59.218Z,102079.82
2017-09-21T17:23:26.911Z,102077.26
2017-09-21T17:28:26.883Z,102079.44
2017-09-21T17:30:53.514Z,102085.59
2017-09-21T17:33:20.409Z,102086.00
2017-09-21T17:35:47.602Z,102090.41
2017-09-21T17:38:14.249Z,102086.91
2017-09-21T17:40:41.265Z,102097.89
2017-09-21T17:43:08.599Z,102097.91
2017-09-21T17:45:35.240Z,102097.02
2017-09-21T17:48:01.876Z,102095.29
2017-09-21T17:50:28.862Z,102102.75
2017-09-21T17:52:55.762Z,102102.30
2017-09-21T17:55:22.397Z,102101.89
2017-09-21T17:57:49.498Z,102100.58
2017-09-21T18:00:16.165Z,102106.71
2017-09-21T18:02:43.540Z,102111.13
2017-09-21T18:05:10.518Z,102112.88
2017-09-21T18:07:37.152Z,102115.49
2017-09-21T18:10:03.765Z,102109.81
2017-09-21T18:12:31.632Z,102112.44
2017-09-21T18:14:58.579Z,102114.19
2017-09-21T18:17:25.215Z,102114.63
2017-09-21T18:19:52.177Z,102111.55
2017-09-21T18:22:18.795Z,102107.55
2017-09-21T18:24:45.414Z,102114.13
2017-09-21T18:27:12.055Z,102118.94
2017-09-21T18:29:38.791Z,102116.28
2017-09-21T18:32:07.019Z,102116.27
2017-09-21T18:34:33.637Z,102116.12
2017-09-21T18:37:00.308Z,102114.54
2017-09-21T18:39:26.938Z,102115.04
2017-09-21T18:41:53.842Z,102113.77
2017-09-21T18:44:21.238Z,102118.59
2017-09-21T18:46:48.244Z,102115.97
2017-09-21T18:49:14.911Z,102120.34
2017-09-21T18:51:41.973Z,102123.02
2017-09-21T18:54:08.615Z,102122.16
2017-09-21T18:56:36.726Z,102123.91
2017-09-21T18:59:03.729Z,102131.37
2017-09-21T19:01:30.376Z,102126.54
2017-09-21T19:03:57.938Z,102129.64
2017-09-21T19:06:24.643Z,102135.77
2017-09-21T19:08:51.264Z,102133.58
2017-09-21T19:11:17.926Z,102141.48
2017-09-21T19:13:44.534Z,102134.89
2017-09-21T19:16:11.642Z,102133.19
2017-09-21T19:18:39.001Z,102135.37
2017-09-21T19:21:06.377Z,102138.42
2017-09-21T19:23:33.404Z,102134.48
2017-09-21T19:26:00.750Z,102137.59
2017-09-21T19:28:27.424Z,102138.47
2017-09-21T19:30:54.488Z,102138.03
2017-09-21T19:33:21.126Z,102136.72
2017-09-21T19:35:47.748Z,102138.91
2017-09-21T19:38:14.747Z,102139.34
2017-09-21T19:40:42.097Z,102138.01
2017-09-21T19:43:08.853Z,102136.73
2017-09-21T19:45:35.864Z,102137.15
2017-09-21T19:48:02.788Z,102133.25
2017-09-21T19:50:29.409Z,102134.52
2017-09-21T19:52:56.515Z,102137.17
2017-09-21T19:55:23.421Z,102132.78
2017-09-21T19:57:50.035Z,102140.23
2017-09-21T20:00:17.766Z,102134.97
2017-09-21T20:02:45.328Z,102131.03
2017-09-21T20:05:12.695Z,102127.09
2017-09-21T20:07:39.868Z,102123.15
2017-09-21T20:10:06.483Z,102130.16
2017-09-21T20:12:33.107Z,102129.77
2017-09-21T20:15:00.972Z,102125.80
2017-09-21T20:17:28.326Z,102127.13
2017-09-21T20:19:56.758Z,102129.34
2017-09-21T20:22:24.215Z,102130.20
2017-09-21T20:24:50.973Z,102127.14
2017-09-21T20:27:17.597Z,102129.31
2017-09-21T20:29:44.484Z,102124.09
2017-09-21T20:32:11.378Z,102131.09
2017-09-21T20:34:37.983Z,102132.41
2017-09-21T20:37:05.727Z,102133.73
2017-09-21T20:39:33.342Z,102131.55
2017-09-21T20:42:00.099Z,102131.55
2017-09-21T20:44:27.075Z,102129.34
2017-09-21T20:46:55.204Z,102132.85
2017-09-21T20:49:21.837Z,102128.08
2017-09-21T20:51:48.930Z,102128.92
2017-09-21T20:54:15.563Z,102125.91
2017-09-21T20:56:42.241Z,102139.45
2017-09-21T20:59:09.515Z,102137.70
2017-09-21T21:01:36.375Z,102139.89
2017-09-21T21:04:03.292Z,102138.13
2017-09-21T21:06:30.758Z,102140.77
2017-09-21T21:08:57.367Z,102140.36
2017-09-21T21:11:25.060Z,102139.49
2017-09-21T21:13:51.697Z,102139.50
2017-09-21T21:16:18.684Z,102145.63
2017-09-21T21:18:46.044Z,102140.81
2017-09-21T21:21:13.658Z,102140.36
2017-09-21T21:23:40.683Z,102143.43
2017-09-21T21:26:08.044Z,102139.04
2017-09-21T21:28:34.646Z,102136.88
2017-09-21T21:31:03.217Z,102135.55
2017-09-21T21:33:30.123Z,102138.63
2017-09-21T21:35:56.790Z,102138.63
2017-09-21T21:38:23.815Z,102129.88
2017-09-21T21:40:50.475Z,102134.70
2017-09-21T21:43:17.108Z,102136.88
2017-09-21T21:45:43.931Z,102138.63
2017-09-21T21:48:10.669Z,102137.33
2017-09-21T21:50:37.275Z,102129.42
2017-09-21T21:53:04.924Z,102131.64
2017-09-21T21:55:31.550Z,102130.77
2017-09-21T21:57:58.892Z,102133.83
2017-09-21T22:00:26.046Z,102138.66
2017-09-21T22:02:52.908Z,102129.90
2017-09-21T22:05:19.555Z,102134.70
2017-09-21T22:07:47.296Z,102125.95
2017-09-21T22:10:15.837Z,102138.23
2017-09-21T22:12:42.462Z,102136.02
2017-09-21T22:15:09.666Z,102132.09
2017-09-21T22:17:37.023Z,102135.16
2017-09-21T22:20:04.670Z,102129.45
2017-09-21T22:22:31.321Z,102119.88
2017-09-21T22:24:59.424Z,102130.35
2017-09-21T22:27:26.803Z,102132.55
2017-09-21T22:29:53.417Z,102131.67
2017-09-21T22:32:21.916Z,102127.28
2017-09-21T22:34:48.531Z,102131.22
2017-09-21T22:37:15.914Z,102132.98
2017-09-21T22:39:42.558Z,102127.70
2017-09-21T22:42:09.496Z,102120.73
2017-09-21T22:44:36.591Z,102125.55
2017-09-21T22:47:04.131Z,102126.86
2017-09-21T22:49:30.918Z,102117.72
2017-09-21T22:51:58.651Z,102132.13
2017-09-21T22:54:25.255Z,102132.99
2017-09-21T22:56:51.871Z,102129.48
2017-09-21T22:59:18.767Z,102132.11
2017-09-21T23:01:45.383Z,102132.11
2017-09-21T23:04:12.017Z,102124.67
2017-09-21T23:06:40.176Z,102127.75
2017-09-21T23:09:07.735Z,102131.25
2017-09-21T23:11:34.367Z,102131.25
2017-09-21T23:14:01.258Z,102127.30
2017-09-21T23:16:27.992Z,102132.14
2017-09-21T23:18:54.615Z,102117.77
2017-09-21T23:21:21.674Z,102130.40
2017-09-21T23:23:48.287Z,102136.52
2017-09-21T23:26:14.898Z,102139.16
2017-09-21T23:28:42.270Z,102136.53
2017-09-21T23:31:08.889Z,102137.84
2017-09-21T23:33:35.521Z,102136.98
2017-09-21T23:36:04.024Z,102134.34
2017-09-21T23:38:30.626Z,102138.30
2017-09-21T23:40:57.954Z,102131.72
2017-09-21T23:43:25.007Z,102135.67
2017-09-21T23:45:51.622Z,102133.03
2017-09-21T23:48:18.256Z,102138.73
2017-09-21T23:50:45.626Z,102134.81
2017-09-21T23:53:12.434Z,102137.42
2017-09-21T23:55:39.073Z,102132.61
2017-09-21T23:58:06.187Z,102134.81
